createdAt,value
2022-09-03T00:04:26.063Z,47.25
2022-09-03T00:13:58.218Z,47.49
2022-09-03T00:23:32.132Z,47.87
2022-09-03T00:33:06.163Z,48.18
2022-09-03T00:42:40.064Z,48.49
2022-09-03T00:52:14.206Z,48.84
2022-09-03T01:01:50.159Z,49.30
2022-09-03T01:11:22.120Z,49.71
2022-09-03T01:20:56.509Z,50.03
2022-09-03T01:30:30.706Z,50.12
2022-09-03T01:40:05.127Z,50.38
2022-09-03T01:49:39.452Z,50.05
2022-09-03T01:59:13.933Z,49.81
2022-09-03T02:08:49.480Z,49.85
2022-09-03T02:18:21.971Z,50.02
2022-09-03T02:27:56.022Z,50.11
2022-09-03T02:37:30.294Z,50.06
2022-09-03T02:47:04.742Z,50.24
2022-09-03T02:56:39.145Z,50.07
2022-09-03T03:06:13.373Z,50.30
2022-09-03T03:15:47.730Z,50.60
2022-09-03T03:25:22.348Z,50.73
2022-09-03T03:34:57.831Z,51.19
2022-09-03T03:44:29.727Z,51.51
2022-09-03T03:54:05.383Z,52.13
2022-09-03T04:03:39.442Z,52.58
2022-09-03T04:13:13.629Z,52.89
2022-09-03T04:22:51.386Z,53.09
2022-09-03T04:32:20.774Z,53.13
2022-09-03T04:41:55.337Z,53.04
2022-09-03T04:51:29.890Z,53.47
2022-09-03T05:01:04.137Z,53.67
2022-09-03T05:10:38.497Z,53.45
2022-09-03T05:20:12.666Z,54.08
2022-09-03T05:29:48.547Z,55.18
2022-09-03T05:39:20.844Z,56.91
2022-09-03T05:48:54.888Z,57.65
2022-09-03T05:58:29.892Z,60.17
2022-09-03T06:08:05.480Z,64.73
2022-09-03T06:17:39.227Z,66.18
2022-09-03T06:27:13.139Z,64.72
2022-09-03T06:36:47.278Z,65.84
2022-09-03T06:46:19.739Z,69.79
2022-09-03T06:55:55.509Z,71.03
2022-09-03T07:05:27.748Z,73.54
2022-09-03T07:15:02.037Z,74.87
2022-09-03T07:24:35.940Z,77.97
2022-09-03T07:25:40.007Z,76.26
2022-09-03T07:26:43.922Z,76.36
2022-09-03T07:27:46.351Z,77.12
2022-09-03T07:28:50.373Z,77.05
2022-09-03T07:29:54.283Z,77.29
2022-09-03T07:30:56.608Z,77.22
2022-09-03T07:40:30.657Z,80.46
2022-09-03T07:41:33.057Z,81.36
2022-09-03T07:42:35.470Z,80.46
2022-09-03T07:43:37.944Z,80.70
2022-09-03T07:44:41.917Z,80.93
2022-09-03T07:45:45.895Z,81.67
2022-09-03T07:46:49.840Z,82.02
2022-09-03T07:47:53.688Z,81.32
2022-09-03T07:48:55.988Z,81.46
2022-09-03T07:49:58.454Z,81.56
2022-09-03T07:51:00.889Z,81.74
2022-09-03T07:52:03.289Z,82.10
2022-09-03T07:53:07.358Z,82.06
2022-09-03T07:54:09.643Z,82.02
2022-09-03T07:55:12.104Z,81.29
2022-09-03T07:56:14.596Z,81.85
2022-09-03T07:57:17.007Z,82.14
2022-09-03T07:58:19.488Z,82.17
2022-09-03T07:59:21.834Z,82.27
2022-09-03T08:00:24.312Z,82.72
2022-09-03T08:01:27.172Z,81.83
2022-09-03T08:02:29.619Z,80.87
2022-09-03T08:03:32.049Z,80.76
2022-09-03T08:04:34.356Z,81.26
2022-09-03T08:05:36.755Z,81.38
2022-09-03T08:06:39.153Z,81.70
2022-09-03T08:07:43.219Z,81.65
2022-09-03T08:08:47.084Z,80.39
2022-09-03T08:09:51.159Z,80.71
2022-09-03T08:10:53.426Z,80.38
2022-09-03T08:11:55.871Z,78.83
2022-09-03T08:12:58.232Z,79.58
2022-09-03T08:14:02.276Z,79.52
2022-09-03T08:15:04.549Z,79.21
2022-09-03T08:16:08.742Z,78.29
2022-09-03T08:17:10.902Z,76.87
2022-09-03T08:18:13.336Z,77.50
2022-09-03T08:19:15.800Z,78.04
2022-09-03T08:20:18.241Z,75.53
2022-09-03T08:21:20.612Z,75.17
2022-09-03T08:22:23.094Z,76.74
2022-09-03T08:23:25.520Z,77.95
2022-09-03T08:24:27.968Z,78.28
2022-09-03T08:25:32.082Z,77.57
2022-09-03T08:26:35.983Z,77.93
2022-09-03T08:27:39.875Z,77.94
2022-09-03T08:28:42.224Z,77.00
2022-09-03T08:29:44.640Z,77.57
2022-09-03T08:30:47.067Z,77.51
2022-09-03T08:31:49.672Z,77.46
2022-09-03T08:32:52.009Z,78.04
2022-09-03T08:33:56.023Z,78.45
2022-09-03T08:34:58.373Z,78.88
2022-09-03T08:36:02.791Z,79.79
2022-09-03T08:37:05.074Z,80.74
2022-09-03T08:38:10.845Z,80.78
2022-09-03T08:39:13.052Z,80.67
2022-09-03T08:40:16.907Z,80.93
2022-09-03T08:41:19.322Z,81.50
2022-09-03T08:42:23.312Z,81.43
2022-09-03T08:43:25.646Z,80.57
2022-09-03T08:44:28.089Z,77.43
2022-09-03T08:45:30.550Z,78.93
2022-09-03T08:46:34.677Z,78.74
2022-09-03T08:47:38.594Z,78.87
2022-09-03T08:48:40.858Z,79.43
2022-09-03T08:49:43.690Z,79.97
2022-09-03T08:50:46.043Z,79.70
2022-09-03T08:51:48.454Z,78.58
2022-09-03T08:52:50.873Z,78.21
2022-09-03T08:53:53.343Z,77.29
2022-09-03T08:54:57.366Z,78.15
2022-09-03T08:55:59.739Z,77.07
2022-09-03T08:57:03.762Z,76.76
2022-09-03T08:58:06.338Z,77.68
2022-09-03T09:07:35.941Z,80.68
2022-09-03T09:08:38.697Z,80.61
2022-09-03T09:09:42.794Z,80.54
2022-09-03T09:10:45.081Z,80.63
2022-09-03T09:11:47.622Z,80.52
2022-09-03T09:12:50.282Z,80.35
2022-09-03T09:13:52.607Z,78.63
2022-09-03T09:14:55.039Z,78.60
2022-09-03T09:15:59.142Z,77.30
2022-09-03T09:17:01.309Z,78.25
2022-09-03T09:18:03.831Z,78.39
2022-09-03T09:19:07.999Z,78.11
2022-09-03T09:20:10.414Z,76.50
2022-09-03T09:21:17.815Z,74.84
2022-09-03T09:22:18.628Z,75.08
2022-09-03T09:23:20.858Z,76.85
2022-09-03T09:24:23.326Z,76.88
2022-09-03T09:25:25.877Z,77.23
2022-09-03T09:26:29.974Z,77.26
2022-09-03T09:27:32.234Z,76.02
2022-09-03T09:28:36.274Z,76.83
2022-09-03T09:29:38.776Z,75.95
2022-09-03T09:30:42.830Z,73.05
2022-09-03T09:31:46.864Z,74.00
2022-09-03T09:32:50.823Z,74.22
2022-09-03T09:33:53.115Z,75.54
2022-09-03T09:34:55.480Z,74.81
2022-09-03T09:35:58.244Z,75.24
2022-09-03T09:37:02.190Z,74.79
2022-09-03T09:38:04.754Z,73.75
2022-09-03T09:39:08.748Z,74.96
2022-09-03T09:40:11.017Z,74.73
2022-09-03T09:41:13.440Z,73.86
2022-09-03T09:42:17.447Z,73.82
2022-09-03T09:43:19.848Z,73.40
2022-09-03T09:44:22.277Z,74.12
2022-09-03T09:45:24.727Z,74.49
2022-09-03T09:46:27.399Z,75.48
2022-09-03T09:47:31.396Z,75.09
2022-09-03T09:48:33.762Z,74.17
2022-09-03T09:49:36.536Z,74.14
2022-09-03T09:50:40.466Z,74.95
2022-09-03T09:51:44.403Z,74.33
2022-09-03T09:52:46.801Z,72.54
2022-09-03T09:53:50.818Z,73.21
2022-09-03T09:54:54.744Z,74.74
2022-09-03T09:55:57.166Z,73.62
2022-09-03T09:56:59.694Z,74.76
2022-09-03T09:58:02.117Z,73.67
2022-09-03T09:59:04.571Z,73.73
2022-09-03T10:00:06.990Z,72.77
2022-09-03T10:01:09.542Z,72.98
2022-09-03T10:02:13.633Z,73.29
2022-09-03T10:03:14.477Z,74.55
2022-09-03T10:04:16.967Z,72.69
2022-09-03T10:05:19.476Z,72.22
2022-09-03T10:06:21.939Z,71.60
2022-09-03T10:07:26.034Z,71.42
2022-09-03T10:08:28.299Z,71.56
2022-09-03T10:09:32.352Z,72.74
2022-09-03T10:10:36.605Z,72.94
2022-09-03T10:11:38.948Z,72.65
2022-09-03T10:12:42.909Z,72.83
2022-09-03T10:13:46.842Z,72.66
2022-09-03T10:14:50.793Z,71.66
2022-09-03T10:15:53.094Z,71.08
2022-09-03T10:16:57.147Z,71.84
2022-09-03T10:18:01.043Z,72.21
2022-09-03T10:19:03.425Z,72.99
2022-09-03T10:20:07.452Z,72.96
2022-09-03T10:21:09.766Z,72.50
2022-09-03T10:22:13.834Z,72.65
2022-09-03T10:23:16.156Z,73.46
2022-09-03T10:24:18.677Z,73.27
2022-09-03T10:25:21.113Z,70.35
2022-09-03T10:26:23.605Z,69.99
2022-09-03T10:27:26.162Z,72.54
2022-09-03T10:28:28.531Z,71.41
2022-09-03T10:29:31.021Z,70.83
2022-09-03T10:30:33.501Z,69.20
2022-09-03T10:31:36.046Z,70.19
2022-09-03T10:32:41.905Z,69.83
2022-09-03T10:33:42.415Z,70.95
2022-09-03T10:34:46.577Z,69.58
2022-09-03T10:35:48.908Z,70.22
2022-09-03T10:36:51.452Z,69.44
2022-09-03T10:37:53.906Z,70.12
2022-09-03T10:38:56.332Z,69.71
2022-09-03T10:40:00.704Z,69.21
2022-09-03T10:41:03.089Z,70.01
2022-09-03T10:42:07.188Z,68.82
2022-09-03T10:43:11.140Z,69.04
2022-09-03T10:44:15.040Z,69.85
2022-09-03T10:45:17.440Z,68.12
2022-09-03T10:46:23.914Z,68.00
2022-09-03T10:47:23.936Z,69.85
2022-09-03T10:48:26.282Z,70.16
2022-09-03T10:49:30.308Z,69.45
2022-09-03T10:50:32.700Z,70.65
2022-09-03T10:51:35.214Z,69.35
2022-09-03T10:52:39.264Z,69.73
2022-09-03T10:53:41.575Z,71.51
2022-09-03T10:54:44.022Z,70.79
2022-09-03T10:55:48.123Z,69.09
2022-09-03T10:56:50.434Z,68.02
2022-09-03T10:57:54.540Z,69.34
2022-09-03T10:58:56.891Z,68.78
2022-09-03T10:59:59.402Z,68.84
2022-09-03T11:01:03.498Z,69.69
2022-09-03T11:02:07.438Z,70.09
2022-09-03T11:03:09.747Z,69.40
2022-09-03T11:04:12.236Z,69.77
2022-09-03T11:05:14.807Z,69.14
2022-09-03T11:06:17.295Z,67.83
2022-09-03T11:07:19.808Z,68.93
2022-09-03T11:08:22.337Z,66.84
2022-09-03T11:09:26.381Z,67.18
2022-09-03T11:10:30.671Z,69.88
2022-09-03T11:11:31.135Z,66.42
2022-09-03T11:12:33.574Z,66.35
2022-09-03T11:13:37.604Z,67.69
2022-09-03T11:14:39.953Z,67.06
2022-09-03T11:24:12.934Z,66.08
2022-09-03T11:25:17.082Z,67.53
2022-09-03T11:26:19.495Z,66.80
2022-09-03T11:27:22.024Z,67.88
2022-09-03T11:28:24.565Z,67.19
2022-09-03T11:29:27.096Z,66.56
2022-09-03T11:30:29.520Z,67.70
2022-09-03T11:31:33.613Z,66.54
2022-09-03T11:32:37.595Z,66.63
2022-09-03T11:33:39.974Z,67.58
2022-09-03T11:34:42.465Z,67.30
2022-09-03T11:35:46.552Z,64.91
2022-09-03T11:36:48.920Z,66.89
2022-09-03T11:37:51.433Z,66.17
2022-09-03T11:38:53.970Z,65.88
2022-09-03T11:39:56.754Z,66.65
2022-09-03T11:41:00.504Z,65.22
2022-09-03T11:42:04.513Z,66.03
2022-09-03T11:43:08.455Z,64.92
2022-09-03T11:44:12.391Z,66.12
2022-09-03T11:45:14.868Z,65.14
2022-09-03T11:46:18.920Z,65.06
2022-09-03T11:47:21.355Z,65.15
2022-09-03T11:48:23.982Z,66.50
2022-09-03T11:49:26.280Z,64.53
2022-09-03T11:50:28.785Z,65.03
2022-09-03T11:51:31.315Z,66.29
2022-09-03T11:52:34.996Z,65.49
2022-09-03T11:53:37.372Z,64.08
2022-09-03T11:54:39.797Z,63.87
2022-09-03T11:55:43.237Z,63.90
2022-09-03T11:56:46.728Z,64.60
2022-09-03T11:57:51.710Z,64.08
2022-09-03T11:58:56.723Z,63.77
2022-09-03T12:00:00.835Z,62.46
2022-09-03T12:01:04.743Z,64.03
2022-09-03T12:02:07.226Z,64.26
2022-09-03T12:03:09.712Z,63.63
2022-09-03T12:04:12.150Z,65.10
2022-09-03T12:05:14.695Z,64.61
2022-09-03T12:06:17.295Z,62.61
2022-09-03T12:07:20.107Z,63.06
2022-09-03T12:08:24.026Z,63.65
2022-09-03T12:09:27.972Z,63.70
2022-09-03T12:10:30.279Z,62.78
2022-09-03T12:11:32.760Z,61.93
2022-09-03T12:12:36.770Z,62.35
2022-09-03T12:13:39.104Z,62.33
2022-09-03T12:14:41.595Z,61.41
2022-09-03T12:15:44.054Z,62.70
2022-09-03T12:16:46.528Z,62.45
2022-09-03T12:17:48.970Z,62.36
2022-09-03T12:18:51.451Z,61.99
2022-09-03T12:19:53.916Z,62.09
2022-09-03T12:20:56.400Z,62.00
2022-09-03T12:21:58.945Z,61.09
2022-09-03T12:23:01.459Z,61.83
2022-09-03T12:24:04.350Z,62.46
2022-09-03T12:25:06.571Z,61.97
2022-09-03T12:26:11.613Z,61.80
2022-09-03T12:27:13.900Z,61.58
2022-09-03T12:28:16.332Z,61.47
2022-09-03T12:29:18.803Z,59.75
2022-09-03T12:30:21.299Z,60.40
2022-09-03T12:31:23.675Z,59.86
2022-09-03T12:32:26.148Z,60.47
2022-09-03T12:33:30.172Z,61.05
2022-09-03T12:34:34.104Z,59.59
2022-09-03T12:36:38.967Z,60.67
2022-09-03T12:39:10.249Z,60.27
2022-09-03T12:41:52.924Z,59.62
2022-09-03T12:43:36.914Z,59.82
2022-09-03T12:43:59.428Z,59.68
2022-09-03T12:45:01.779Z,58.16
2022-09-03T12:46:13.043Z,58.96
2022-09-03T12:48:10.779Z,58.10
2022-09-03T12:49:30.404Z,59.60
2022-09-03T12:50:17.755Z,57.85
2022-09-03T12:51:51.647Z,57.33
2022-09-03T12:52:22.029Z,58.94
2022-09-03T12:53:24.654Z,58.64
2022-09-03T12:54:28.659Z,57.96
2022-09-03T12:55:31.052Z,57.80
2022-09-03T12:56:35.119Z,57.54
2022-09-03T12:57:37.436Z,57.97
2022-09-03T12:58:39.865Z,57.25
2022-09-03T12:59:43.994Z,57.90
2022-09-03T13:00:46.316Z,57.73
2022-09-03T13:01:48.910Z,56.85
2022-09-03T13:02:51.262Z,56.84
2022-09-03T13:03:55.385Z,58.45
2022-09-03T13:04:57.712Z,56.17
2022-09-03T13:06:02.326Z,56.67
2022-09-03T13:07:06.325Z,57.71
2022-09-03T13:08:08.666Z,57.73
2022-09-03T13:09:12.781Z,57.07
2022-09-03T13:10:15.083Z,57.30
2022-09-03T13:11:17.603Z,57.62
2022-09-03T13:12:21.700Z,56.14
2022-09-03T13:13:25.780Z,55.19
2022-09-03T13:14:28.280Z,55.23
2022-09-03T13:15:30.656Z,55.09
2022-09-03T13:16:33.214Z,57.45
2022-09-03T13:17:35.638Z,55.36
2022-09-03T13:18:39.698Z,54.82
2022-09-03T13:19:43.785Z,55.75
2022-09-03T13:20:46.141Z,53.96
2022-09-03T13:21:48.608Z,54.69
2022-09-03T13:22:51.024Z,54.17
2022-09-03T13:23:53.433Z,55.23
2022-09-03T13:24:55.902Z,55.29
2022-09-03T13:26:00.713Z,55.45
2022-09-03T13:27:00.900Z,57.38
2022-09-03T13:28:03.375Z,57.20
2022-09-03T13:29:05.820Z,56.96
2022-09-03T13:30:09.983Z,57.06
2022-09-03T13:31:13.950Z,56.99
2022-09-03T13:32:16.237Z,56.08
2022-09-03T13:33:18.668Z,56.58
2022-09-03T13:34:22.731Z,56.87
2022-09-03T13:35:25.182Z,56.09
2022-09-03T13:36:29.272Z,55.64
2022-09-03T13:37:31.637Z,56.02
2022-09-03T13:38:37.217Z,54.72
2022-09-03T13:39:37.621Z,54.28
2022-09-03T13:40:40.221Z,55.70
2022-09-03T13:41:44.817Z,55.10
2022-09-03T13:42:48.931Z,53.67
2022-09-03T13:43:51.353Z,53.20
2022-09-03T13:44:55.398Z,53.24
2022-09-03T13:45:57.762Z,51.80
2022-09-03T13:47:00.526Z,51.75
2022-09-03T13:48:05.658Z,53.34
2022-09-03T13:49:08.476Z,52.40
2022-09-03T13:50:13.794Z,53.02
2022-09-03T13:51:16.254Z,51.94
2022-09-03T13:52:19.693Z,52.31
2022-09-03T13:53:22.740Z,51.98
2022-09-03T13:54:42.794Z,53.28
2022-09-03T13:55:27.018Z,53.01
2022-09-03T13:56:31.120Z,53.01
2022-09-03T13:57:33.472Z,53.64
2022-09-03T13:58:35.894Z,53.30
2022-09-03T13:59:38.357Z,54.03
2022-09-03T14:00:42.532Z,54.72
2022-09-03T14:01:44.918Z,54.43
2022-09-03T14:02:47.396Z,54.20
2022-09-03T14:03:49.831Z,54.20
2022-09-03T14:04:52.277Z,54.51
2022-09-03T14:05:56.413Z,55.00
2022-09-03T14:06:58.809Z,54.31
2022-09-03T14:08:01.319Z,54.69
2022-09-03T14:09:03.906Z,54.71
2022-09-03T14:10:06.918Z,54.00
2022-09-03T14:11:09.330Z,54.22
2022-09-03T14:12:11.840Z,54.10
2022-09-03T14:13:15.923Z,54.07
2022-09-03T14:14:19.958Z,53.26
2022-09-03T14:15:22.225Z,52.73
2022-09-03T14:16:24.820Z,53.40
2022-09-03T14:17:28.802Z,52.56
2022-09-03T14:18:31.175Z,53.61
2022-09-03T14:19:35.269Z,52.60
2022-09-03T14:20:39.246Z,54.24
2022-09-03T14:21:41.620Z,53.58
2022-09-03T14:22:45.709Z,52.73
2022-09-03T14:23:49.599Z,53.29
2022-09-03T14:24:51.998Z,52.77
2022-09-03T14:25:56.016Z,52.61
2022-09-03T14:26:58.443Z,52.26
2022-09-03T14:28:00.912Z,52.25
2022-09-03T14:29:03.350Z,52.78
2022-09-03T14:30:07.451Z,52.73
2022-09-03T14:31:09.773Z,52.27
2022-09-03T14:32:12.304Z,53.20
2022-09-03T14:33:14.701Z,53.29
2022-09-03T14:34:17.182Z,53.85
2022-09-03T14:35:21.280Z,54.04
2022-09-03T14:36:23.644Z,54.17
2022-09-03T14:37:26.202Z,54.06
2022-09-03T14:38:28.654Z,54.78
2022-09-03T14:39:32.566Z,54.50
2022-09-03T14:40:33.639Z,55.31
2022-09-03T14:41:36.023Z,55.55
2022-09-03T14:42:38.509Z,55.90
2022-09-03T14:43:42.619Z,56.93
2022-09-03T14:44:46.569Z,56.58
2022-09-03T14:45:48.948Z,56.86
2022-09-03T14:46:51.389Z,55.75
2022-09-03T14:47:53.907Z,55.88
2022-09-03T14:48:56.303Z,54.49
2022-09-03T14:50:00.363Z,54.49
2022-09-03T14:51:02.776Z,55.25
2022-09-03T14:52:05.272Z,55.37
2022-09-03T14:53:07.733Z,55.92
2022-09-03T14:54:10.307Z,54.90
2022-09-03T14:55:14.342Z,55.06
2022-09-03T14:56:16.742Z,55.33
2022-09-03T14:57:20.902Z,56.53
2022-09-03T14:58:24.816Z,56.39
2022-09-03T14:59:27.189Z,55.91
2022-09-03T15:00:29.666Z,56.10
2022-09-03T15:01:35.703Z,56.91
2022-09-03T15:02:34.771Z,56.37
2022-09-03T15:03:37.330Z,56.66
2022-09-03T15:04:39.800Z,56.69
2022-09-03T15:05:42.279Z,56.45
2022-09-03T15:06:44.845Z,55.95
2022-09-03T15:07:47.299Z,56.60
2022-09-03T15:08:49.844Z,56.48
2022-09-03T15:09:52.297Z,57.35
2022-09-03T15:10:56.764Z,57.31
2022-09-03T15:11:58.899Z,56.21
2022-09-03T15:13:01.382Z,56.74
2022-09-03T15:14:05.425Z,56.88
2022-09-03T15:15:07.742Z,57.54
2022-09-03T15:16:10.363Z,57.18
2022-09-03T15:17:14.337Z,56.70
2022-09-03T15:18:17.061Z,57.11
2022-09-03T15:19:21.126Z,57.03
2022-09-03T15:20:23.565Z,56.71
2022-09-03T15:21:25.973Z,56.68
2022-09-03T15:22:28.452Z,57.20
2022-09-03T15:23:30.998Z,56.91
2022-09-03T15:24:35.086Z,57.66
2022-09-03T15:25:37.498Z,57.82
2022-09-03T15:26:39.885Z,57.91
2022-09-03T15:27:42.458Z,57.77
2022-09-03T15:28:46.497Z,58.40
2022-09-03T15:29:48.956Z,58.06
2022-09-03T15:30:53.664Z,58.46
2022-09-03T15:31:56.183Z,58.58
2022-09-03T15:32:58.673Z,58.37
2022-09-03T15:34:01.135Z,59.12
2022-09-03T15:35:03.578Z,58.66
2022-09-03T15:36:08.719Z,59.02
2022-09-03T15:37:12.634Z,59.35
2022-09-03T15:38:15.042Z,59.35
2022-09-03T15:39:17.533Z,59.56
2022-09-03T15:40:19.985Z,59.73
2022-09-03T15:41:24.079Z,59.60
2022-09-03T15:42:26.413Z,60.08
2022-09-03T15:43:28.867Z,59.87
2022-09-03T15:44:32.932Z,59.76
2022-09-03T15:45:35.616Z,60.29
2022-09-03T15:46:37.903Z,60.04
2022-09-03T15:47:51.301Z,60.35
2022-09-03T15:48:44.347Z,60.42
2022-09-03T15:49:46.845Z,60.38
2022-09-03T15:50:49.271Z,60.35
2022-09-03T15:51:51.758Z,60.50
2022-09-03T15:52:54.195Z,60.72
2022-09-03T15:53:56.923Z,61.00
2022-09-03T15:55:01.007Z,60.89
2022-09-03T15:56:05.225Z,60.92
2022-09-03T15:57:07.499Z,61.10
2022-09-03T15:58:09.930Z,61.40
2022-09-03T16:07:40.336Z,68.84
2022-09-03T16:08:47.582Z,70.77
2022-09-03T16:10:02.172Z,72.33
2022-09-03T16:19:19.553Z,78.48
2022-09-03T16:20:23.664Z,78.58
2022-09-03T16:21:27.674Z,80.16
2022-09-03T16:22:31.589Z,80.24
2022-09-03T16:23:35.524Z,79.92
2022-09-03T16:24:37.786Z,79.97
2022-09-03T16:25:41.824Z,80.07
2022-09-03T16:26:44.147Z,79.90
2022-09-03T16:27:46.565Z,79.99
2022-09-03T16:28:49.175Z,80.23
2022-09-03T16:29:53.181Z,80.72
2022-09-03T16:30:55.499Z,81.82
2022-09-03T16:31:58.014Z,82.04
2022-09-03T16:41:29.775Z,83.08
2022-09-03T16:42:32.319Z,83.41
2022-09-03T16:43:40.934Z,83.05
2022-09-03T16:44:37.372Z,82.73
2022-09-03T16:45:41.430Z,83.25
2022-09-03T16:46:43.836Z,83.54
2022-09-03T16:47:47.871Z,83.03
2022-09-03T16:48:51.859Z,83.38
2022-09-03T16:49:54.264Z,83.10
2022-09-03T16:50:56.629Z,83.46
2022-09-03T16:51:59.309Z,82.80
2022-09-03T16:53:01.742Z,82.54
2022-09-03T16:54:04.147Z,83.19
2022-09-03T16:55:06.613Z,84.08
2022-09-03T16:56:10.618Z,84.52
2022-09-03T16:57:13.027Z,84.72
2022-09-03T16:58:15.550Z,85.10
2022-09-03T16:59:17.958Z,85.72
2022-09-03T17:00:20.525Z,85.78
2022-09-03T17:01:23.001Z,86.01
2022-09-03T17:02:40.386Z,85.77
2022-09-03T17:03:29.698Z,85.05
2022-09-03T17:04:33.467Z,83.87
2022-09-03T17:05:35.825Z,83.15
2022-09-03T17:06:38.259Z,82.39
2022-09-03T17:07:42.322Z,82.06
2022-09-03T17:08:46.226Z,82.67
2022-09-03T17:09:50.916Z,82.79
2022-09-03T17:10:52.621Z,82.04
2022-09-03T17:11:54.899Z,81.93
2022-09-03T17:12:57.466Z,82.16
2022-09-03T17:13:59.912Z,80.25
2022-09-03T17:15:03.983Z,78.10
2022-09-03T17:16:06.358Z,79.76
2022-09-03T17:17:08.814Z,80.65
2022-09-03T17:18:11.243Z,80.29
2022-09-03T17:19:13.669Z,79.83
2022-09-03T17:20:17.750Z,79.94
2022-09-03T17:21:20.047Z,79.68
2022-09-03T17:22:22.534Z,79.34
2022-09-03T17:23:26.560Z,78.88
2022-09-03T17:24:28.861Z,79.22
2022-09-03T17:25:32.927Z,79.76
2022-09-03T17:35:03.365Z,82.83
2022-09-03T17:36:05.867Z,82.93
2022-09-03T17:37:08.457Z,82.83
2022-09-03T17:38:10.898Z,82.56
2022-09-03T17:39:14.907Z,82.94
2022-09-03T17:40:17.288Z,82.60
2022-09-03T17:41:19.805Z,82.82
2022-09-03T17:42:24.090Z,83.03
2022-09-03T17:43:26.520Z,82.90
2022-09-03T17:44:28.896Z,83.07
2022-09-03T17:45:31.332Z,83.09
2022-09-03T17:46:35.368Z,82.93
2022-09-03T17:47:37.778Z,82.55
2022-09-03T17:48:41.795Z,82.61
2022-09-03T17:49:44.147Z,82.85
2022-09-03T17:50:46.603Z,82.52
2022-09-03T17:51:49.013Z,81.71
2022-09-03T17:52:51.535Z,81.60
2022-09-03T17:53:53.995Z,81.05
2022-09-03T17:54:56.438Z,81.37
2022-09-03T17:55:58.859Z,81.55
2022-09-03T17:57:01.347Z,80.85
2022-09-03T17:58:05.453Z,80.97
2022-09-03T17:59:09.323Z,81.70
2022-09-03T18:00:13.247Z,82.45
2022-09-03T18:01:15.630Z,82.75
2022-09-03T18:10:47.176Z,84.99
2022-09-03T18:20:22.270Z,87.13
2022-09-03T18:29:56.123Z,86.63
2022-09-03T18:39:28.533Z,87.01
2022-09-03T18:49:02.533Z,87.80
2022-09-03T18:58:35.727Z,89.11
2022-09-03T19:08:09.935Z,90.43
2022-09-03T19:17:45.405Z,90.88
2022-09-03T19:27:39.019Z,91.06
2022-09-03T19:36:52.580Z,90.42
2022-09-03T19:46:26.978Z,90.96
2022-09-03T19:56:05.259Z,90.96
2022-09-03T20:05:36.647Z,91.02
2022-09-03T20:15:08.838Z,91.00
2022-09-03T20:24:43.047Z,91.32
2022-09-03T20:34:17.215Z,91.70
2022-09-03T20:43:51.635Z,92.64
2022-09-03T20:53:27.577Z,91.96
2022-09-03T21:02:59.987Z,93.69
2022-09-03T21:12:34.485Z,94.77
2022-09-03T21:22:09.137Z,94.76
2022-09-03T21:31:43.144Z,94.11
2022-09-03T21:41:17.424Z,92.79
2022-09-03T21:50:51.323Z,92.62
2022-09-03T22:00:25.240Z,92.01
2022-09-03T22:10:00.412Z,93.15
2022-09-03T22:19:33.324Z,92.69
2022-09-03T22:29:07.078Z,92.62
2022-09-03T22:38:40.394Z,92.11
2022-09-03T22:48:15.922Z,91.85
2022-09-03T22:57:48.320Z,91.78
2022-09-03T23:07:23.298Z,92.64
2022-09-03T23:16:55.520Z,92.68
2022-09-03T23:26:29.571Z,92.41
2022-09-03T23:36:06.457Z,92.63
2022-09-03T23:45:39.635Z,92.59
2022-09-03T23:55:11.649Z,92.83
